createdAt,value
2019-03-18T00:00:36.927Z,87.47
2019-03-18T00:03:26.328Z,87.93
2019-03-18T00:06:15.776Z,88.34
2019-03-18T00:09:06.357Z,88.77
2019-03-18T00:11:55.893Z,89.26
2019-03-18T00:14:45.642Z,89.41
2019-03-18T00:17:35.357Z,89.89
2019-03-18T00:20:24.705Z,89.89
2019-03-18T00:23:14.158Z,90.50
2019-03-18T00:26:04.405Z,89.93
2019-03-18T00:28:54.488Z,89.01
2019-03-18T00:31:43.619Z,87.85
2019-03-18T00:34:33.269Z,88.07
2019-03-18T00:37:22.519Z,87.86
2019-03-18T00:40:11.966Z,88.64
2019-03-18T00:43:00.653Z,88.96
2019-03-18T00:45:50.131Z,88.94
2019-03-18T00:48:39.693Z,89.44
2019-03-18T00:51:29.006Z,88.99
2019-03-18T00:54:18.538Z,89.43
2019-03-18T00:57:08.111Z,88.68
2019-03-18T00:59:58.758Z,89.11
2019-03-18T01:02:50.041Z,89.41
2019-03-18T01:05:38.947Z,89.08
2019-03-18T01:08:28.697Z,88.05
2019-03-18T01:11:17.223Z,88.52
2019-03-18T01:14:06.609Z,87.47
2019-03-18T01:16:56.194Z,87.25
2019-03-18T01:19:45.720Z,87.54
2019-03-18T01:22:35.135Z,87.34
2019-03-18T01:25:24.338Z,87.37
2019-03-18T01:28:13.860Z,87.63
2019-03-18T01:31:03.696Z,87.55
2019-03-18T01:33:53.541Z,87.82
2019-03-18T01:36:42.121Z,88.47
2019-03-18T01:39:32.005Z,88.98
2019-03-18T01:42:21.451Z,89.16
2019-03-18T01:45:11.372Z,89.20
2019-03-18T01:48:00.730Z,89.64
2019-03-18T01:50:50.127Z,89.71
2019-03-18T01:53:38.792Z,89.60
2019-03-18T01:56:28.439Z,89.93
2019-03-18T01:59:18.339Z,90.12
2019-03-18T02:02:07.545Z,90.56
2019-03-18T02:04:57.204Z,90.52
2019-03-18T02:07:47.206Z,90.34
2019-03-18T02:10:36.266Z,90.53
2019-03-18T02:13:25.156Z,90.57
2019-03-18T02:16:14.323Z,90.33
2019-03-18T02:19:02.953Z,90.07
2019-03-18T02:21:52.915Z,90.28
2019-03-18T02:24:42.493Z,89.83
2019-03-18T02:27:31.845Z,89.69
2019-03-18T02:30:21.031Z,89.74
2019-03-18T02:33:10.081Z,89.69
2019-03-18T02:35:59.429Z,89.98
2019-03-18T02:38:48.391Z,89.98
2019-03-18T02:41:36.980Z,89.98
2019-03-18T02:44:25.876Z,89.65
2019-03-18T02:47:14.973Z,89.68
2019-03-18T02:50:04.778Z,89.87
2019-03-18T02:52:54.602Z,90.24
2019-03-18T02:55:44.224Z,90.18
2019-03-18T02:58:33.614Z,89.69
2019-03-18T03:01:22.456Z,89.65
2019-03-18T03:04:11.287Z,89.64
2019-03-18T03:07:00.944Z,89.65
2019-03-18T03:09:49.597Z,89.71
2019-03-18T03:12:38.845Z,90.04
2019-03-18T03:15:27.800Z,89.74
2019-03-18T03:18:16.965Z,89.73
2019-03-18T03:21:06.384Z,89.44
2019-03-18T03:23:56.018Z,89.21
2019-03-18T03:26:45.602Z,89.24
2019-03-18T03:29:35.095Z,89.15
2019-03-18T03:32:23.657Z,88.74
2019-03-18T03:35:12.414Z,89.02
2019-03-18T03:38:02.390Z,88.12
2019-03-18T03:40:51.427Z,88.06
2019-03-18T03:43:39.839Z,88.04
2019-03-18T03:46:42.484Z,88.25
2019-03-18T03:49:19.349Z,88.27
2019-03-18T03:52:08.224Z,88.01
2019-03-18T03:54:57.003Z,88.06
2019-03-18T03:57:45.856Z,88.22
2019-03-18T04:00:35.937Z,88.22
2019-03-18T04:03:37.650Z,88.35
2019-03-18T04:06:15.874Z,88.22
2019-03-18T04:09:06.546Z,88.14
2019-03-18T04:11:55.764Z,87.93
2019-03-18T04:14:45.115Z,88.30
2019-03-18T04:17:34.282Z,88.87
2019-03-18T04:20:23.478Z,88.69
2019-03-18T04:23:12.901Z,88.16
2019-03-18T04:26:01.543Z,88.84
2019-03-18T04:28:51.399Z,88.10
2019-03-18T04:31:40.873Z,88.22
2019-03-18T04:34:30.912Z,88.12
2019-03-18T04:37:21.832Z,88.19
2019-03-18T04:40:11.106Z,88.83
2019-03-18T04:43:00.793Z,87.95
2019-03-18T04:45:49.935Z,88.02
2019-03-18T04:48:39.035Z,88.76
2019-03-18T04:51:28.679Z,89.24
2019-03-18T04:54:17.884Z,89.02
2019-03-18T04:57:07.012Z,88.28
2019-03-18T04:59:55.765Z,89.07
2019-03-18T05:02:44.973Z,88.23
2019-03-18T05:05:34.639Z,88.84
2019-03-18T05:08:24.513Z,89.02
2019-03-18T05:11:13.705Z,89.26
2019-03-18T05:14:02.838Z,89.40
2019-03-18T05:16:52.078Z,88.65
2019-03-18T05:19:41.525Z,88.62
2019-03-18T05:22:30.740Z,87.03
2019-03-18T05:25:20.112Z,87.76
2019-03-18T05:28:08.821Z,87.93
2019-03-18T05:30:58.108Z,87.14
2019-03-18T05:33:48.664Z,87.55
2019-03-18T05:36:38.498Z,88.45
2019-03-18T05:39:27.849Z,87.97
2019-03-18T05:42:17.259Z,88.27
2019-03-18T05:45:06.187Z,88.40
2019-03-18T05:47:56.035Z,88.57
2019-03-18T05:50:45.709Z,90.03
2019-03-18T05:53:35.463Z,90.80
2019-03-18T05:56:23.813Z,88.66
2019-03-18T05:59:13.503Z,89.57
2019-03-18T06:02:02.854Z,88.73
2019-03-18T06:04:52.958Z,88.84
2019-03-18T06:07:42.507Z,88.90
2019-03-18T06:10:31.679Z,88.83
2019-03-18T06:13:21.428Z,87.25
2019-03-18T06:16:10.580Z,86.58
2019-03-18T06:19:01.284Z,87.07
2019-03-18T06:21:50.175Z,86.29
2019-03-18T06:24:39.032Z,86.07
2019-03-18T06:27:28.801Z,86.73
2019-03-18T06:30:18.358Z,86.94
2019-03-18T06:33:06.676Z,86.83
2019-03-18T06:35:56.199Z,86.90
2019-03-18T06:38:44.743Z,86.99
2019-03-18T06:41:33.899Z,87.11
2019-03-18T06:44:23.111Z,86.55
2019-03-18T06:47:12.677Z,86.02
2019-03-18T06:50:02.511Z,85.67
2019-03-18T06:52:51.422Z,85.66
2019-03-18T06:55:40.535Z,84.98
2019-03-18T06:58:29.982Z,84.53
2019-03-18T07:01:19.507Z,84.65
2019-03-18T07:04:08.621Z,83.56
2019-03-18T07:06:56.899Z,84.32
2019-03-18T07:09:46.604Z,83.96
2019-03-18T07:12:35.941Z,82.93
2019-03-18T07:15:25.510Z,82.56
2019-03-18T07:18:18.689Z,82.37
2019-03-18T07:21:05.083Z,81.48
2019-03-18T07:23:54.272Z,81.94
2019-03-18T07:26:43.572Z,81.04
2019-03-18T07:29:32.744Z,79.92
2019-03-18T07:32:22.063Z,79.69
2019-03-18T07:35:11.308Z,79.59
2019-03-18T07:38:00.681Z,79.24
2019-03-18T07:40:50.067Z,79.75
2019-03-18T07:43:39.172Z,76.45
2019-03-18T07:46:27.754Z,76.85
2019-03-18T07:49:16.833Z,75.52
2019-03-18T07:52:05.695Z,75.94
2019-03-18T07:54:54.395Z,76.56
2019-03-18T07:57:43.467Z,75.79
2019-03-18T08:00:32.824Z,76.09
2019-03-18T08:03:22.204Z,76.40
2019-03-18T08:06:12.596Z,75.63
2019-03-18T08:09:01.406Z,74.79
2019-03-18T08:11:52.107Z,73.82
2019-03-18T08:14:41.257Z,73.98
2019-03-18T08:17:30.351Z,74.03
2019-03-18T08:20:19.211Z,73.76
2019-03-18T08:23:09.095Z,74.42
2019-03-18T08:25:58.282Z,74.50
2019-03-18T08:28:47.838Z,73.35
2019-03-18T08:31:37.573Z,73.23
2019-03-18T08:34:26.433Z,73.23
2019-03-18T08:37:16.162Z,72.95
2019-03-18T08:40:06.179Z,73.49
2019-03-18T08:42:55.331Z,73.52
2019-03-18T08:45:44.765Z,73.78
2019-03-18T08:48:34.294Z,74.41
2019-03-18T08:51:23.611Z,75.13
2019-03-18T08:54:12.859Z,75.68
2019-03-18T08:57:02.269Z,74.60
2019-03-18T08:59:51.905Z,74.63
2019-03-18T09:02:41.489Z,74.07
2019-03-18T09:05:31.009Z,75.17
2019-03-18T09:08:20.381Z,74.18
2019-03-18T09:11:09.554Z,73.24
2019-03-18T09:13:58.176Z,74.08
2019-03-18T09:16:47.245Z,74.94
2019-03-18T09:19:36.924Z,74.97
2019-03-18T09:22:26.179Z,75.25
2019-03-18T09:25:15.011Z,75.73
2019-03-18T09:28:04.107Z,76.77
2019-03-18T09:30:52.476Z,76.76
2019-03-18T09:33:41.377Z,77.88
2019-03-18T09:36:31.064Z,78.25
2019-03-18T09:39:21.074Z,80.26
2019-03-18T09:42:09.772Z,79.59
2019-03-18T09:44:59.209Z,80.45
2019-03-18T09:47:48.595Z,81.96
2019-03-18T09:50:38.042Z,80.74
2019-03-18T09:53:27.243Z,82.09
2019-03-18T09:56:16.780Z,80.64
2019-03-18T09:59:06.001Z,81.62
2019-03-18T10:01:55.210Z,80.16
2019-03-18T10:04:45.063Z,77.15
2019-03-18T10:07:34.411Z,76.99
2019-03-18T10:10:24.669Z,77.50
2019-03-18T10:13:13.972Z,77.79
2019-03-18T10:16:02.907Z,76.03
2019-03-18T10:18:52.049Z,73.37
2019-03-18T10:21:41.412Z,74.23
2019-03-18T10:24:30.688Z,74.00
2019-03-18T10:27:20.351Z,74.21
2019-03-18T10:30:09.495Z,74.00
2019-03-18T10:32:59.101Z,73.38
2019-03-18T10:35:48.334Z,73.25
2019-03-18T10:38:37.285Z,72.69
2019-03-18T10:41:26.151Z,71.94
2019-03-18T10:44:14.862Z,71.83
2019-03-18T10:47:04.490Z,71.76
2019-03-18T10:49:53.103Z,72.66
2019-03-18T10:52:42.176Z,71.20
2019-03-18T10:55:31.288Z,70.61
2019-03-18T10:58:20.965Z,68.72
2019-03-18T11:01:10.988Z,67.86
2019-03-18T11:04:00.820Z,67.84
2019-03-18T11:06:50.944Z,68.83
2019-03-18T11:09:40.608Z,69.08
2019-03-18T11:12:29.207Z,67.81
2019-03-18T11:15:18.237Z,65.92
2019-03-18T11:18:07.381Z,66.46
2019-03-18T11:20:57.051Z,66.37
2019-03-18T11:23:46.519Z,65.16
2019-03-18T11:26:35.439Z,66.68
2019-03-18T11:29:25.015Z,66.16
2019-03-18T11:32:14.076Z,66.72
2019-03-18T11:35:03.172Z,64.44
2019-03-18T11:37:52.675Z,62.48
2019-03-18T11:40:41.711Z,60.26
2019-03-18T11:43:30.897Z,60.62
2019-03-18T11:46:19.262Z,58.81
2019-03-18T11:49:08.834Z,58.95
2019-03-18T11:51:57.379Z,61.62
2019-03-18T11:54:47.301Z,61.42
2019-03-18T11:57:37.137Z,59.60
2019-03-18T12:00:25.930Z,58.91
2019-03-18T12:03:14.586Z,58.50
2019-03-18T12:06:04.580Z,59.50
2019-03-18T12:08:54.472Z,57.50
2019-03-18T12:11:43.730Z,59.23
2019-03-18T12:14:32.741Z,58.25
2019-03-18T12:17:22.080Z,57.34
2019-03-18T12:20:23.645Z,58.78
2019-03-18T12:23:02.233Z,58.22
2019-03-18T12:25:51.474Z,57.57
2019-03-18T12:28:41.210Z,58.59
2019-03-18T12:31:30.689Z,57.66
2019-03-18T12:34:20.011Z,58.62
2019-03-18T12:37:09.151Z,61.80
2019-03-18T12:39:58.548Z,65.50
2019-03-18T12:42:47.989Z,67.64
2019-03-18T12:45:37.375Z,69.03
2019-03-18T12:48:27.053Z,70.54
2019-03-18T12:51:16.570Z,72.09
2019-03-18T12:54:06.195Z,69.99
2019-03-18T12:56:55.252Z,68.52
2019-03-18T12:59:44.369Z,68.07
2019-03-18T13:02:33.892Z,68.03
2019-03-18T13:05:23.938Z,68.16
2019-03-18T13:08:13.387Z,67.19
2019-03-18T13:11:03.424Z,68.56
2019-03-18T13:13:52.765Z,69.07
2019-03-18T13:16:41.962Z,68.60
2019-03-18T13:19:31.635Z,68.72
2019-03-18T13:22:21.005Z,69.36
2019-03-18T13:25:10.713Z,67.92
2019-03-18T13:27:59.388Z,68.32
2019-03-18T13:30:49.204Z,66.46
2019-03-18T13:33:41.396Z,65.27
2019-03-18T13:36:28.590Z,63.79
2019-03-18T13:39:18.087Z,62.95
2019-03-18T13:42:08.150Z,66.07
2019-03-18T13:44:57.836Z,63.91
2019-03-18T13:47:46.984Z,64.69
2019-03-18T13:50:36.353Z,66.47
2019-03-18T13:53:25.323Z,70.57
2019-03-18T13:56:14.968Z,69.75
2019-03-18T13:59:04.502Z,71.10
2019-03-18T14:01:54.660Z,68.30
2019-03-18T14:04:43.812Z,66.95
2019-03-18T14:07:32.740Z,69.38
2019-03-18T14:10:22.523Z,70.54
2019-03-18T14:13:11.989Z,71.56
2019-03-18T14:16:01.451Z,77.92
2019-03-18T14:18:50.392Z,81.33
2019-03-18T14:21:39.846Z,86.04
2019-03-18T14:24:29.316Z,86.44
2019-03-18T14:27:18.859Z,88.91
2019-03-18T14:30:10.499Z,89.41
2019-03-18T14:32:59.848Z,86.10
2019-03-18T14:35:49.545Z,88.54
2019-03-18T14:38:38.965Z,87.56
2019-03-18T14:41:27.541Z,85.97
2019-03-18T14:44:16.609Z,86.09
2019-03-18T14:47:06.177Z,85.10
2019-03-18T14:49:55.309Z,85.05
2019-03-18T14:52:45.095Z,82.12
2019-03-18T14:55:34.404Z,80.33
2019-03-18T14:58:24.035Z,73.93
2019-03-18T15:01:13.877Z,73.95
2019-03-18T15:04:02.484Z,70.70
2019-03-18T15:06:51.903Z,70.23
2019-03-18T15:09:41.055Z,71.83
2019-03-18T15:12:31.668Z,72.28
2019-03-18T15:15:20.790Z,68.74
2019-03-18T15:18:11.472Z,68.41
2019-03-18T15:21:00.170Z,67.48
2019-03-18T15:23:50.035Z,67.47
2019-03-18T15:26:39.216Z,67.02
2019-03-18T15:29:28.401Z,65.68
2019-03-18T15:32:17.639Z,68.33
2019-03-18T15:35:06.962Z,68.63
2019-03-18T15:37:57.642Z,69.72
2019-03-18T15:40:46.106Z,69.81
2019-03-18T15:43:35.042Z,69.84
2019-03-18T15:46:24.483Z,69.99
2019-03-18T15:49:13.349Z,68.63
2019-03-18T15:52:10.846Z,68.59
2019-03-18T15:54:54.173Z,70.81
2019-03-18T15:57:43.559Z,71.13
2019-03-18T16:00:34.314Z,71.17
2019-03-18T16:03:23.654Z,70.07
2019-03-18T16:06:12.926Z,72.14
2019-03-18T16:09:01.697Z,73.10
2019-03-18T16:11:50.791Z,74.68
2019-03-18T16:14:39.886Z,76.25
2019-03-18T16:17:29.790Z,73.95
2019-03-18T16:20:19.439Z,73.65
2019-03-18T16:23:08.343Z,73.26
2019-03-18T16:25:58.053Z,72.59
2019-03-18T16:28:47.569Z,73.33
2019-03-18T16:31:37.005Z,73.13
2019-03-18T16:34:26.217Z,73.29
2019-03-18T16:37:16.016Z,74.60
2019-03-18T16:40:06.249Z,72.32
2019-03-18T16:42:56.440Z,74.84
2019-03-18T16:45:45.887Z,73.83
2019-03-18T16:48:34.794Z,76.51
2019-03-18T16:51:23.457Z,77.11
2019-03-18T16:54:12.205Z,77.68
2019-03-18T16:57:01.797Z,75.85
2019-03-18T16:59:50.354Z,78.06
2019-03-18T17:02:39.402Z,78.82
2019-03-18T17:05:27.987Z,79.84
2019-03-18T17:08:16.573Z,80.04
2019-03-18T17:11:05.853Z,82.02
2019-03-18T17:13:54.466Z,82.15
2019-03-18T17:16:44.107Z,84.01
2019-03-18T17:19:33.919Z,82.60
2019-03-18T17:22:23.295Z,83.82
2019-03-18T17:25:14.651Z,84.15
2019-03-18T17:28:04.018Z,83.56
2019-03-18T17:30:53.111Z,83.51
2019-03-18T17:33:42.576Z,84.23
2019-03-18T17:36:31.774Z,83.91
2019-03-18T17:39:21.319Z,83.98
2019-03-18T17:42:10.802Z,85.40
2019-03-18T17:45:00.629Z,85.61
2019-03-18T17:47:51.514Z,85.86
2019-03-18T17:50:40.948Z,86.08
2019-03-18T17:53:30.465Z,86.88
2019-03-18T17:56:29.774Z,87.93
2019-03-18T17:59:10.325Z,87.50
2019-03-18T18:02:00.856Z,88.44
2019-03-18T18:05:02.142Z,88.62
2019-03-18T18:07:41.109Z,89.79
2019-03-18T18:10:29.786Z,88.94
2019-03-18T18:13:18.821Z,88.88
2019-03-18T18:16:08.207Z,89.56
2019-03-18T18:18:57.383Z,89.64
2019-03-18T18:21:46.029Z,89.48
2019-03-18T18:24:35.557Z,89.44
2019-03-18T18:27:24.105Z,90.63
2019-03-18T18:30:13.668Z,90.53
2019-03-18T18:33:03.326Z,90.67
2019-03-18T18:35:52.992Z,89.98
2019-03-18T18:38:42.381Z,90.85
2019-03-18T18:41:31.581Z,90.40
2019-03-18T18:44:20.510Z,89.67
2019-03-18T18:47:08.926Z,88.32
2019-03-18T18:49:58.245Z,88.33
2019-03-18T18:52:47.010Z,91.69
2019-03-18T18:55:36.832Z,92.66
2019-03-18T18:58:25.249Z,91.89
2019-03-18T19:01:14.604Z,93.27
2019-03-18T19:04:03.274Z,92.19
2019-03-18T19:06:53.353Z,92.40
2019-03-18T19:09:42.682Z,94.07
2019-03-18T19:12:31.450Z,94.16
2019-03-18T19:15:20.476Z,94.20
2019-03-18T19:18:09.820Z,94.74
2019-03-18T19:20:59.235Z,93.93
2019-03-18T19:23:47.836Z,94.65
2019-03-18T19:26:37.066Z,94.06
2019-03-18T19:29:26.532Z,94.45
2019-03-18T19:32:16.085Z,93.87
2019-03-18T19:35:05.287Z,93.33
2019-03-18T19:37:54.931Z,93.50
2019-03-18T19:40:44.464Z,93.25
2019-03-18T19:43:34.089Z,93.51
2019-03-18T19:46:23.840Z,93.50
2019-03-18T19:49:13.423Z,94.07
2019-03-18T19:52:03.716Z,94.02
2019-03-18T19:54:53.196Z,94.22
2019-03-18T19:57:42.892Z,94.90
2019-03-18T20:00:32.598Z,94.14
2019-03-18T20:03:22.137Z,94.38
2019-03-18T20:06:11.747Z,94.71
2019-03-18T20:09:02.443Z,94.35
2019-03-18T20:11:51.496Z,94.84
2019-03-18T20:14:41.633Z,95.18
2019-03-18T20:17:30.464Z,95.20
2019-03-18T20:20:19.173Z,94.83
2019-03-18T20:23:08.916Z,94.74
2019-03-18T20:25:58.948Z,94.73
2019-03-18T20:28:48.462Z,94.89
2019-03-18T20:31:38.295Z,96.24
2019-03-18T20:34:27.988Z,95.46
2019-03-18T20:37:17.393Z,96.55
2019-03-18T20:40:07.036Z,97.08
2019-03-18T20:42:56.683Z,96.53
2019-03-18T20:45:46.623Z,96.91
2019-03-18T20:48:35.576Z,97.44
2019-03-18T20:51:25.231Z,97.68
2019-03-18T20:54:14.365Z,97.28
2019-03-18T20:57:03.179Z,98.09
2019-03-18T20:59:52.327Z,98.56
2019-03-18T21:02:41.900Z,98.69
2019-03-18T21:05:32.805Z,99.08
2019-03-18T21:08:21.958Z,98.94
2019-03-18T21:11:11.966Z,99.57
2019-03-18T21:14:01.060Z,99.16
2019-03-18T21:16:49.993Z,98.70
2019-03-18T21:19:39.410Z,98.61
2019-03-18T21:22:28.759Z,98.90
2019-03-18T21:25:19.226Z,98.45
2019-03-18T21:28:08.910Z,98.28
2019-03-18T21:30:58.278Z,97.50
2019-03-18T21:33:48.039Z,97.24
2019-03-18T21:36:38.525Z,97.77
2019-03-18T21:39:27.193Z,97.89
2019-03-18T21:42:16.638Z,99.25
2019-03-18T21:45:06.367Z,98.84
2019-03-18T21:47:55.703Z,97.85
2019-03-18T21:50:45.122Z,97.80
2019-03-18T21:53:34.322Z,96.95
2019-03-18T21:56:22.653Z,97.26
2019-03-18T21:59:11.305Z,97.59
2019-03-18T22:02:00.028Z,97.96
2019-03-18T22:04:48.804Z,97.65
2019-03-18T22:07:37.899Z,97.01
2019-03-18T22:10:27.250Z,96.11
2019-03-18T22:13:16.612Z,96.43
2019-03-18T22:16:05.410Z,96.57
2019-03-18T22:18:54.557Z,95.96
2019-03-18T22:21:42.997Z,95.88
2019-03-18T22:24:31.549Z,96.65
2019-03-18T22:27:20.981Z,96.36
2019-03-18T22:30:10.890Z,96.46
2019-03-18T22:33:00.370Z,95.85
2019-03-18T22:35:49.551Z,96.04
2019-03-18T22:38:38.803Z,96.02
2019-03-18T22:41:30.217Z,96.02
2019-03-18T22:44:19.088Z,96.06
2019-03-18T22:47:07.884Z,95.41
2019-03-18T22:49:57.715Z,95.79
2019-03-18T22:52:47.248Z,96.51
2019-03-18T22:55:36.489Z,97.06
2019-03-18T22:58:25.094Z,97.36
2019-03-18T23:01:17.324Z,97.50
2019-03-18T23:04:06.027Z,98.27
2019-03-18T23:06:54.656Z,98.40
2019-03-18T23:09:44.465Z,98.08
2019-03-18T23:12:33.681Z,98.25
2019-03-18T23:15:24.420Z,97.82
2019-03-18T23:18:14.093Z,98.19
2019-03-18T23:21:02.887Z,99.00
2019-03-18T23:23:51.590Z,99.35
2019-03-18T23:26:40.772Z,99.24
2019-03-18T23:29:30.257Z,99.75
2019-03-18T23:32:19.433Z,99.49
2019-03-18T23:35:08.594Z,100.00
2019-03-18T23:37:58.450Z,99.17
2019-03-18T23:40:48.004Z,100.00
2019-03-18T23:43:37.455Z,99.81
2019-03-18T23:46:26.040Z,99.15
2019-03-18T23:49:15.439Z,99.18
2019-03-18T23:52:04.989Z,100.00
2019-03-18T23:54:54.141Z,100.00
2019-03-18T23:57:43.579Z,99.85
